Terminal Aerodrome Forecast
Issued by NWS

Home | Current Version | Previous Version | Text Only | Print | Product List | Glossary On
Versions: 1 2 3 4 5 6 7 8 9 10 11 12
000
FTUS44 KLZK 242300
TAFHRO
TAF
KHRO 242320Z 2500/2524 25008KT P6SM SCT250
     FM250300 24008KT P6SM SCT100 BKN250
     FM250800 23006KT P6SM SCT050 BKN100
     FM251200 27012G20KT P6SM VCSH OVC050 PROB30 2512/2515 5SM -SHRA
      BR BKN030
     FM251500 30012G22KT P6SM BKN030 PROB30 2521/2524 5SM -SHRA=

USA.gov is the U.S. government's official web portal to all federal, state and local government web resources and services.